createdAt,value
2022-12-11T00:00:38.347Z,99261.59
2022-12-11T00:03:10.292Z,99254.69
2022-12-11T00:05:43.302Z,99263.63
2022-12-11T00:08:11.021Z,99250.81
2022-12-11T00:10:38.880Z,99251.34
2022-12-11T00:13:06.617Z,99236.16
2022-12-11T00:15:34.362Z,99240.66
2022-12-11T00:18:01.896Z,99261.38
2022-12-11T00:20:31.358Z,99265.47
2022-12-11T00:22:59.102Z,99248.75
2022-12-11T00:25:27.732Z,99215.19
2022-12-11T00:27:55.281Z,99249.09
2022-12-11T00:30:22.857Z,99250.28
2022-12-11T00:32:52.120Z,99249.09
2022-12-11T00:35:20.075Z,99236.94
2022-12-11T00:37:49.498Z,99246.38
2022-12-11T00:40:17.166Z,99255.28
2022-12-11T00:42:44.644Z,99267.97
2022-12-11T00:45:12.362Z,99267.59
2022-12-11T00:47:40.014Z,99264.25
2022-12-11T00:50:08.420Z,99282.44
2022-12-11T00:52:35.913Z,99247.38
2022-12-11T00:55:05.529Z,99279.56
2022-12-11T00:57:32.649Z,99284.16
2022-12-11T01:00:00.285Z,99280.97
2022-12-11T01:02:27.970Z,99290.38
2022-12-11T01:04:56.793Z,99288.19
2022-12-11T01:07:24.313Z,99278.97
2022-12-11T01:09:52.367Z,99284.31
2022-12-11T01:12:21.338Z,99275.19
2022-12-11T01:14:48.913Z,99286.31
2022-12-11T01:17:16.423Z,99258.00
2022-12-11T01:19:44.355Z,99281.25
2022-12-11T01:22:11.845Z,99269.81
2022-12-11T01:24:39.418Z,99274.22
2022-12-11T01:27:06.897Z,99279.41
2022-12-11T01:29:35.825Z,99261.72
2022-12-11T01:32:03.918Z,99257.34
2022-12-11T01:34:31.583Z,99254.28
2022-12-11T01:36:59.285Z,99262.56
2022-12-11T01:39:26.829Z,99258.66
2022-12-11T01:41:57.564Z,99281.25
2022-12-11T01:45:03.110Z,99269.63
2022-12-11T01:47:32.051Z,99267.09
2022-12-11T01:49:59.562Z,99283.47
2022-12-11T01:52:27.079Z,99275.03
2022-12-11T01:54:54.500Z,99280.97
2022-12-11T01:57:22.154Z,99273.34
2022-12-11T01:59:49.730Z,99267.97
2022-12-11T02:02:20.838Z,99295.59
2022-12-11T02:04:49.933Z,99295.75
2022-12-11T02:07:17.730Z,99291.03
2022-12-11T02:09:47.102Z,99297.44
2022-12-11T02:12:20.657Z,99300.13
2022-12-11T02:14:56.041Z,99295.41
2022-12-11T02:17:31.315Z,99303.97
2022-12-11T02:20:08.447Z,99299.78
2022-12-11T02:23:02.349Z,99295.75
2022-12-11T02:25:35.902Z,99297.47
2022-12-11T02:28:30.289Z,99305.34
2022-12-11T02:31:02.498Z,99301.28
2022-12-11T02:33:36.621Z,99303.69
2022-12-11T02:36:08.160Z,99311.50
2022-12-11T02:38:39.643Z,99303.09
2022-12-11T02:41:11.053Z,99297.78
2022-12-11T02:43:42.169Z,99294.09
2022-12-11T02:46:10.673Z,99293.22
2022-12-11T02:48:40.726Z,99284.97
2022-12-11T02:51:10.693Z,99283.47
2022-12-11T02:53:42.501Z,99286.66
2022-12-11T02:56:17.122Z,99287.00
2022-12-11T02:58:53.975Z,99286.66
2022-12-11T03:01:26.435Z,99284.97
2022-12-11T03:03:54.415Z,99281.03
2022-12-11T03:06:27.802Z,99290.41
2022-12-11T03:08:55.414Z,99286.69
2022-12-11T03:11:23.157Z,99284.97
2022-12-11T03:13:53.341Z,99278.44
2022-12-11T03:16:30.289Z,99272.50
2022-12-11T03:19:07.136Z,99280.59
2022-12-11T03:21:43.147Z,99283.78
2022-12-11T03:24:16.583Z,99282.03
2022-12-11T03:26:53.094Z,99278.13
2022-12-11T03:29:31.753Z,99286.91
2022-12-11T03:32:05.327Z,99283.03
2022-12-11T03:34:39.722Z,99277.56
2022-12-11T03:37:09.274Z,99278.22
2022-12-11T03:39:39.407Z,99280.44
2022-12-11T03:42:12.148Z,99284.16
2022-12-11T03:44:44.487Z,99276.88
2022-12-11T03:47:15.322Z,99279.75
2022-12-11T03:49:45.177Z,99282.75
2022-12-11T03:52:14.818Z,99276.50
2022-12-11T03:54:45.470Z,99273.66
2022-12-11T03:57:17.053Z,99274.66
2022-12-11T03:59:45.975Z,99283.41
2022-12-11T04:02:13.488Z,99283.25
2022-12-11T04:04:42.116Z,99286.59
2022-12-11T04:07:10.038Z,99276.72
2022-12-11T04:09:38.037Z,99273.47
2022-12-11T04:12:05.879Z,99271.59
2022-12-11T04:14:33.565Z,99270.94
2022-12-11T04:17:02.760Z,99277.19
2022-12-11T04:19:30.449Z,99267.22
2022-12-11T04:21:58.118Z,99272.34
2022-12-11T04:24:26.133Z,99273.81
2022-12-11T04:26:53.716Z,99266.75
2022-12-11T04:29:21.355Z,99275.16
2022-12-11T04:31:49.406Z,99265.91
2022-12-11T04:34:18.327Z,99281.56
2022-12-11T04:36:46.337Z,99269.38
2022-12-11T04:39:14.004Z,99268.63
2022-12-11T04:41:41.461Z,99273.16
2022-12-11T04:44:09.069Z,99277.19
2022-12-11T04:46:36.982Z,99275.16
2022-12-11T04:49:04.690Z,99266.22
2022-12-11T04:51:33.646Z,99268.78
2022-12-11T04:54:01.296Z,99277.53
2022-12-11T04:56:28.877Z,99289.31
2022-12-11T04:58:56.346Z,99280.91
2022-12-11T05:01:24.333Z,99285.78
2022-12-11T05:03:51.933Z,99290.31
2022-12-11T05:06:19.585Z,99292.16
2022-12-11T05:08:48.737Z,99296.75
2022-12-11T05:11:16.900Z,99297.75
2022-12-11T05:13:45.473Z,99289.66
2022-12-11T05:16:16.008Z,99295.88
2022-12-11T05:18:43.765Z,99288.47
2022-12-11T05:21:12.874Z,99285.94
2022-12-11T05:23:41.398Z,99281.38
2022-12-11T05:26:13.801Z,99288.16
2022-12-11T05:28:42.186Z,99280.91
2022-12-11T05:31:13.694Z,99270.13
2022-12-11T05:33:41.598Z,99258.31
2022-12-11T05:36:14.011Z,99262.31
2022-12-11T05:38:42.568Z,99264.84
2022-12-11T05:41:14.080Z,99295.19
2022-12-11T05:43:42.357Z,99297.03
2022-12-11T05:46:12.312Z,99291.81
2022-12-11T05:48:40.725Z,99297.03
2022-12-11T05:51:10.319Z,99305.81
2022-12-11T05:53:40.118Z,99299.56
2022-12-11T05:56:11.425Z,99300.09
2022-12-11T05:58:39.880Z,99293.88
2022-12-11T06:01:09.843Z,99299.13
2022-12-11T06:03:38.223Z,99302.13
2022-12-11T06:06:07.678Z,99303.63
2022-12-11T06:08:36.245Z,99308.00
2022-12-11T06:11:04.804Z,99307.19
2022-12-11T06:13:34.035Z,99303.44
2022-12-11T06:16:02.391Z,99303.44
2022-12-11T06:18:30.464Z,99305.13
2022-12-11T06:20:58.190Z,99307.81
2022-12-11T06:23:26.049Z,99302.94
2022-12-11T06:25:53.721Z,99305.47
2022-12-11T06:28:21.925Z,99309.31
2022-12-11T06:30:51.655Z,99302.13
2022-12-11T06:33:19.318Z,99307.16
2022-12-11T06:35:47.597Z,99297.38
2022-12-11T06:38:16.037Z,99300.09
2022-12-11T06:40:44.575Z,99292.84
2022-12-11T06:43:12.966Z,99293.22
2022-12-11T06:45:41.563Z,99298.63
2022-12-11T06:48:10.875Z,99298.91
2022-12-11T06:50:39.502Z,99297.88
2022-12-11T06:53:07.883Z,99303.28
2022-12-11T06:55:35.974Z,99315.25
2022-12-11T06:58:03.727Z,99303.47
2022-12-11T07:00:32.449Z,99309.13
2022-12-11T07:02:59.878Z,99291.75
2022-12-11T07:05:29.443Z,99301.50
2022-12-11T07:07:58.369Z,99304.66
2022-12-11T07:10:26.814Z,99307.53
2022-12-11T07:12:54.551Z,99301.81
2022-12-11T07:15:23.087Z,99302.81
2022-12-11T07:17:50.937Z,99288.72
2022-12-11T07:20:18.727Z,99296.03
2022-12-11T07:22:48.208Z,99301.75
2022-12-11T07:25:15.825Z,99297.03
2022-12-11T07:27:43.566Z,99295.19
2022-12-11T07:30:12.950Z,99295.19
2022-12-11T07:32:41.553Z,99290.28
2022-12-11T07:35:10.495Z,99287.94
2022-12-11T07:37:40.369Z,99276.94
2022-12-11T07:40:11.025Z,99281.16
2022-12-11T07:42:44.466Z,99287.94
2022-12-11T07:45:14.575Z,99277.81
2022-12-11T07:47:42.952Z,99280.66
2022-12-11T07:50:11.075Z,99284.03
2022-12-11T07:52:38.637Z,99280.50
2022-12-11T07:55:06.720Z,99283.19
2022-12-11T07:57:35.666Z,99293.88
2022-12-11T08:00:03.691Z,99287.94
2022-12-11T08:02:39.708Z,99287.75
2022-12-11T08:05:09.103Z,99287.75
2022-12-11T08:07:36.739Z,99278.47
2022-12-11T08:10:05.756Z,99279.31
2022-12-11T08:12:33.321Z,99270.41
2022-12-11T08:15:02.786Z,99268.56
2022-12-11T08:17:36.663Z,99267.34
2022-12-11T08:20:08.434Z,99263.81
2022-12-11T08:22:36.334Z,99256.38
2022-12-11T08:25:04.547Z,99268.19
2022-12-11T08:27:32.530Z,99264.84
2022-12-11T08:30:02.336Z,99248.84
2022-12-11T08:32:29.948Z,99249.47
2022-12-11T08:34:57.802Z,99246.97
2022-12-11T08:37:25.438Z,99241.94
2022-12-11T08:39:53.017Z,99253.84
2022-12-11T08:42:22.051Z,99244.91
2022-12-11T08:44:50.142Z,99242.59
2022-12-11T08:47:19.971Z,99244.91
2022-12-11T08:49:48.838Z,99248.63
2022-12-11T08:52:16.482Z,99244.91
2022-12-11T08:54:44.582Z,99256.72
2022-12-11T08:57:12.484Z,99242.38
2022-12-11T08:59:41.708Z,99246.97
2022-12-11T09:02:12.532Z,99247.78
2022-12-11T09:04:42.567Z,99248.63
2022-12-11T09:07:10.095Z,99243.56
2022-12-11T09:09:37.728Z,99246.59
2022-12-11T09:12:06.257Z,99248.44
2022-12-11T09:14:34.050Z,99237.34
2022-12-11T09:17:02.403Z,99238.38
2022-12-11T09:19:32.414Z,99240.72
2022-12-11T09:22:02.325Z,99225.03
2022-12-11T09:24:30.253Z,99222.50
2022-12-11T09:26:57.775Z,99215.91
2022-12-11T09:29:25.438Z,99213.22
2022-12-11T09:31:53.157Z,99216.56
2022-12-11T09:34:27.440Z,99214.88
2022-12-11T09:36:57.206Z,99206.63
2022-12-11T09:39:26.534Z,99205.44
2022-12-11T09:42:00.351Z,99193.63
2022-12-11T09:44:34.909Z,99183.16
2022-12-11T09:47:03.254Z,99177.59
2022-12-11T09:49:37.828Z,99169.50
2022-12-11T09:52:15.784Z,99172.38
2022-12-11T09:54:59.792Z,99174.53
2022-12-11T09:57:40.458Z,99170.00
2022-12-11T10:00:18.263Z,99156.03
2022-12-11T10:03:22.138Z,99158.19
2022-12-11T10:05:58.335Z,99163.59
2022-12-11T10:08:34.659Z,99152.50
2022-12-11T10:11:18.285Z,99153.81
2022-12-11T10:13:56.128Z,99150.75
2022-12-11T10:16:34.972Z,99149.72
2022-12-11T10:19:03.160Z,99138.47
2022-12-11T10:21:38.711Z,99145.19
2022-12-11T10:24:29.369Z,99147.03
2022-12-11T10:27:16.536Z,99149.06
2022-12-11T10:29:44.370Z,99146.38
2022-12-11T10:32:21.757Z,99140.97
2022-12-11T10:34:54.291Z,99142.84
2022-12-11T10:37:22.077Z,99134.09
2022-12-11T10:39:49.591Z,99130.72
2022-12-11T10:42:21.065Z,99132.25
2022-12-11T10:44:59.907Z,99129.72
2022-12-11T10:47:29.043Z,99126.00
2022-12-11T10:49:59.836Z,99127.69
2022-12-11T10:52:33.009Z,99116.44
2022-12-11T10:55:03.618Z,99120.59
2022-12-11T10:57:35.168Z,99123.50
2022-12-11T11:00:05.612Z,99115.41
2022-12-11T11:02:36.297Z,99114.56
2022-12-11T11:05:13.926Z,99126.38
2022-12-11T11:07:42.647Z,99120.81
2022-12-11T11:10:17.824Z,99115.75
2022-12-11T11:12:49.643Z,99107.66
2022-12-11T11:15:20.454Z,99112.88
2022-12-11T11:17:55.094Z,99112.88
2022-12-11T11:20:25.747Z,99116.22
2022-12-11T11:22:55.532Z,99125.16
2022-12-11T11:25:25.497Z,99115.03
2022-12-11T11:27:56.613Z,99106.94
2022-12-11T11:30:26.352Z,99113.66
2022-12-11T11:32:54.811Z,99113.66
2022-12-11T11:35:25.035Z,99106.56
2022-12-11T11:38:02.797Z,99106.75
2022-12-11T11:40:31.988Z,99108.28
2022-12-11T11:43:11.444Z,99103.88
2022-12-11T11:45:47.118Z,99104.06
2022-12-11T11:48:31.218Z,99104.53
2022-12-11T11:51:14.314Z,99101.16
2022-12-11T11:53:45.129Z,99101.47
2022-12-11T11:56:20.387Z,99095.44
2022-12-11T11:58:56.674Z,99098.31
2022-12-11T12:01:24.559Z,99093.94
2022-12-11T12:03:53.162Z,99106.22
2022-12-11T12:06:34.649Z,99104.16
2022-12-11T12:09:15.158Z,99103.53
2022-12-11T12:11:49.732Z,99107.03
2022-12-11T12:17:24.819Z,99094.41
2022-12-11T12:20:04.642Z,99102.97
2022-12-11T12:22:42.105Z,99094.41
2022-12-11T12:25:19.481Z,99093.00
2022-12-11T12:28:00.042Z,99084.09
2022-12-11T12:30:37.864Z,99083.25
2022-12-11T12:33:22.725Z,99087.63
2022-12-11T12:35:58.833Z,99084.91
2022-12-11T12:38:39.289Z,99082.50
2022-12-11T12:41:16.545Z,99082.22
2022-12-11T12:43:58.049Z,99078.50
2022-12-11T12:46:43.109Z,99075.16
2022-12-11T12:49:15.894Z,99069.41
2022-12-11T12:51:44.549Z,99073.09
2022-12-11T12:54:16.537Z,99071.44
2022-12-11T12:56:44.833Z,99068.56
2022-12-11T12:59:23.673Z,99072.28
2022-12-11T13:01:57.320Z,99063.31
2022-12-11T13:04:55.923Z,99062.13
2022-12-11T13:07:29.214Z,99069.19
2022-12-11T13:10:05.084Z,99059.25
2022-12-11T13:12:40.658Z,99058.41
2022-12-11T13:15:33.647Z,99059.25
2022-12-11T13:18:05.188Z,99055.72
2022-12-11T13:20:35.045Z,99048.47
2022-12-11T13:23:17.150Z,99057.38
2022-12-11T13:25:52.086Z,99051.16
2022-12-11T13:28:26.345Z,99036.66
2022-12-11T13:31:00.048Z,99042.03
2022-12-11T13:33:30.586Z,99031.44
2022-12-11T13:36:28.913Z,99033.09
2022-12-11T13:39:01.389Z,99027.53
2022-12-11T13:41:34.103Z,99019.59
2022-12-11T13:44:02.827Z,99012.53
2022-12-11T13:46:35.438Z,99009.66
2022-12-11T13:49:07.330Z,98998.41
2022-12-11T13:51:36.552Z,98997.56
2022-12-11T13:54:07.456Z,98998.22
2022-12-11T13:56:35.505Z,98994.50
2022-12-11T13:59:03.821Z,98989.47
2022-12-11T14:01:35.545Z,98984.06
2022-12-11T14:04:12.040Z,98976.44
2022-12-11T14:06:41.299Z,98966.88
2022-12-11T14:09:10.470Z,98969.38
2022-12-11T14:11:40.935Z,98963.97
2022-12-11T14:14:19.209Z,98961.75
2022-12-11T14:16:49.023Z,98962.78
2022-12-11T14:19:21.595Z,98959.63
2022-12-11T14:21:58.097Z,98960.94
2022-12-11T14:24:27.534Z,98949.69
2022-12-11T14:26:56.025Z,98950.69
2022-12-11T14:29:30.257Z,98946.13
2022-12-11T14:32:02.449Z,98941.94
2022-12-11T14:34:35.788Z,98932.63
2022-12-11T14:37:07.991Z,98917.94
2022-12-11T14:39:41.501Z,98930.41
2022-12-11T14:42:15.521Z,98925.28
2022-12-11T14:44:50.962Z,98922.03
2022-12-11T14:47:22.538Z,98918.41
2022-12-11T14:49:58.009Z,98911.06
2022-12-11T14:52:31.053Z,98910.31
2022-12-11T14:55:06.615Z,98907.25
2022-12-11T14:57:36.497Z,98908.91
2022-12-11T15:00:06.349Z,98901.38
2022-12-11T15:02:35.393Z,98901.78
2022-12-11T15:05:08.580Z,98893.94
2022-12-11T15:07:37.912Z,98896.00
2022-12-11T15:10:06.283Z,98886.88
2022-12-11T15:12:34.534Z,98895.34
2022-12-11T15:15:07.029Z,98886.16
2022-12-11T15:17:36.057Z,98884.25
2022-12-11T15:20:09.228Z,98884.72
2022-12-11T15:22:37.122Z,98884.63
2022-12-11T15:25:06.158Z,98881.31
2022-12-11T15:27:36.635Z,98882.59
2022-12-11T15:30:24.881Z,98879.63
2022-12-11T15:33:06.041Z,98874.69
2022-12-11T15:35:35.533Z,98878.50
2022-12-11T15:38:03.804Z,98859.53
2022-12-11T15:40:32.258Z,98862.31
2022-12-11T15:43:03.472Z,98854.84
2022-12-11T15:45:31.394Z,98861.94
2022-12-11T15:47:58.853Z,98856.53
2022-12-11T15:50:28.235Z,98859.69
2022-12-11T15:52:58.275Z,98852.81
2022-12-11T15:55:29.583Z,98853.25
2022-12-11T15:58:01.446Z,98849.94
2022-12-11T16:00:30.385Z,98846.38
2022-12-11T16:02:58.689Z,98848.03
2022-12-11T16:05:26.891Z,98843.69
2022-12-11T16:07:56.986Z,98837.66
2022-12-11T16:10:26.321Z,98837.56
2022-12-11T16:12:54.287Z,98831.03
2022-12-11T16:15:24.049Z,98822.59
2022-12-11T16:18:00.111Z,98822.31
2022-12-11T16:20:28.389Z,98814.50
2022-12-11T16:22:57.770Z,98829.16
2022-12-11T16:25:25.881Z,98827.50
2022-12-11T16:27:56.569Z,98820.81
2022-12-11T16:30:25.842Z,98820.44
2022-12-11T16:32:55.325Z,98826.84
2022-12-11T16:35:22.953Z,98818.28
2022-12-11T16:37:51.711Z,98811.44
2022-12-11T16:40:22.366Z,98820.75
2022-12-11T16:42:50.626Z,98821.06
2022-12-11T16:45:20.084Z,98823.75
2022-12-11T16:47:49.669Z,98812.78
2022-12-11T16:50:18.457Z,98816.38
2022-12-11T16:52:46.926Z,98816.25
2022-12-11T16:55:14.917Z,98816.38
2022-12-11T16:57:43.975Z,98811.63
2022-12-11T17:00:12.632Z,98815.13
2022-12-11T17:02:40.551Z,98813.66
2022-12-11T17:05:08.742Z,98819.22
2022-12-11T17:07:37.872Z,98807.16
2022-12-11T17:10:06.060Z,98813.81
2022-12-11T17:12:33.783Z,98807.88
2022-12-11T17:15:04.168Z,98809.84
2022-12-11T17:17:33.032Z,98809.56
2022-12-11T17:20:01.675Z,98807.25
2022-12-11T17:22:31.564Z,98805.56
2022-12-11T17:24:59.590Z,98807.41
2022-12-11T17:27:27.986Z,98799.78
2022-12-11T17:29:55.824Z,98801.00
2022-12-11T17:32:25.469Z,98796.06
2022-12-11T17:34:53.407Z,98799.97
2022-12-11T17:37:22.307Z,98795.59
2022-12-11T17:39:50.206Z,98792.53
2022-12-11T17:42:17.765Z,98796.06
2022-12-11T17:44:45.548Z,98788.25
2022-12-11T17:47:13.278Z,98785.28
2022-12-11T17:49:42.451Z,98781.53
2022-12-11T17:52:10.136Z,98776.16
2022-12-11T17:54:37.741Z,98779.22
2022-12-11T17:57:06.294Z,98784.00
2022-12-11T17:59:33.948Z,98792.72
2022-12-11T18:02:01.711Z,98774.88
2022-12-11T18:04:29.659Z,98774.03
2022-12-11T18:06:58.615Z,98768.25
2022-12-11T18:09:26.294Z,98763.53
2022-12-11T18:11:53.738Z,98770.78
2022-12-11T18:14:21.333Z,98764.34
2022-12-11T18:16:48.989Z,98762.28
2022-12-11T18:19:16.860Z,98762.22
2022-12-11T18:21:45.047Z,98758.03
2022-12-11T18:24:14.497Z,98759.06
2022-12-11T18:26:42.835Z,98756.81
2022-12-11T18:29:10.838Z,98748.28
2022-12-11T18:31:42.444Z,98748.09
2022-12-11T18:34:11.271Z,98748.28
2022-12-11T18:36:38.891Z,98743.53
2022-12-11T18:39:06.456Z,98731.44
2022-12-11T18:41:36.306Z,98740.84
2022-12-11T18:44:08.142Z,98736.53
2022-12-11T18:46:37.460Z,98730.63
2022-12-11T18:49:05.194Z,98727.28
2022-12-11T18:51:32.863Z,98740.28
2022-12-11T18:54:01.278Z,98724.44
2022-12-11T18:56:28.886Z,98724.34
2022-12-11T18:58:57.932Z,98721.00
2022-12-11T19:01:28.990Z,98718.53
2022-12-11T19:04:03.255Z,98726.41
2022-12-11T19:06:33.988Z,98720.06
2022-12-11T19:09:02.782Z,98727.03
2022-12-11T19:11:32.378Z,98726.00
2022-12-11T19:14:01.670Z,98713.63
2022-12-11T19:16:31.274Z,98721.25
2022-12-11T19:18:59.688Z,98725.31
2022-12-11T19:21:28.776Z,98724.50
2022-12-11T19:23:57.147Z,98722.66
2022-12-11T19:26:25.052Z,98721.81
2022-12-11T19:28:52.814Z,98720.25
2022-12-11T19:31:23.572Z,98722.09
2022-12-11T19:33:51.328Z,98731.03
2022-12-11T19:36:21.805Z,98717.53
2022-12-11T19:38:49.487Z,98716.69
2022-12-11T19:41:19.572Z,98713.53
2022-12-11T19:43:47.994Z,98707.41
2022-12-11T19:46:16.216Z,98720.16
2022-12-11T19:48:45.926Z,98704.41
2022-12-11T19:51:14.411Z,98706.09
2022-12-11T19:53:46.107Z,98708.78
2022-12-11T19:56:14.900Z,98702.34
2022-12-11T19:58:42.749Z,98710.44
2022-12-11T20:01:10.720Z,98718.00
2022-12-11T20:03:39.152Z,98713.91
2022-12-11T20:06:08.815Z,98710.34
2022-12-11T20:08:44.906Z,98698.66
2022-12-11T20:11:18.058Z,98701.63
2022-12-11T20:13:46.749Z,98694.94
2022-12-11T20:16:15.547Z,98693.63
2022-12-11T20:18:43.061Z,98706.75
2022-12-11T20:21:14.996Z,98690.94
2022-12-11T20:23:43.052Z,98691.97
2022-12-11T20:26:14.087Z,98693.00
2022-12-11T20:28:43.700Z,98693.38
2022-12-11T20:31:19.498Z,98689.03
2022-12-11T20:33:48.161Z,98691.31
2022-12-11T20:36:19.949Z,98695.88
2022-12-11T20:38:47.664Z,98697.75
2022-12-11T20:41:18.991Z,98697.75
2022-12-11T20:43:47.822Z,98694.41
2022-12-11T20:46:17.459Z,98693.56
2022-12-11T20:48:45.992Z,98700.44
2022-12-11T20:51:23.979Z,98697.28
2022-12-11T20:53:54.713Z,98702.88
2022-12-11T20:56:22.392Z,98700.19
2022-12-11T20:58:49.937Z,98697.47
2022-12-11T21:01:20.891Z,98704.09
2022-12-11T21:03:49.268Z,98704.94
2022-12-11T21:06:23.938Z,98710.97
2022-12-11T21:08:52.334Z,98707.81
2022-12-11T21:11:20.580Z,98703.91
2022-12-11T21:13:50.754Z,98694.53
2022-12-11T21:16:20.146Z,98704.53
2022-12-11T21:18:48.156Z,98703.50
2022-12-11T21:21:16.644Z,98699.34
2022-12-11T21:23:46.709Z,98688.56
2022-12-11T21:26:14.578Z,98697.13
2022-12-11T21:28:42.345Z,98692.53
2022-12-11T21:31:13.815Z,98693.38
2022-12-11T21:33:41.605Z,98706.41
2022-12-11T21:36:11.529Z,98705.38
2022-12-11T21:38:40.048Z,98704.94
2022-12-11T21:41:10.977Z,98697.59
2022-12-11T21:43:52.608Z,98699.53
2022-12-11T21:46:28.036Z,98705.69
2022-12-11T21:48:55.780Z,98684.13
2022-12-11T21:51:25.017Z,98686.22
2022-12-11T21:53:53.281Z,98688.56
2022-12-11T21:56:23.754Z,98685.03
2022-12-11T21:58:52.577Z,98685.66
2022-12-11T22:01:21.879Z,98687.72
2022-12-11T22:03:50.310Z,98684.38
2022-12-11T22:06:18.347Z,98689.59
2022-12-11T22:08:46.085Z,98695.81
2022-12-11T22:11:14.699Z,98708.66
2022-12-11T22:13:43.789Z,98710.97
2022-12-11T22:16:11.406Z,98705.78
2022-12-11T22:18:39.122Z,98699.53
2022-12-11T22:21:06.962Z,98708.91
2022-12-11T22:23:34.877Z,98714.50
2022-12-11T22:26:02.849Z,98716.56
2022-12-11T22:28:30.398Z,98720.09
2022-12-11T22:30:59.464Z,98717.56
2022-12-11T22:33:27.550Z,98728.69
2022-12-11T22:35:59.265Z,98724.78
2022-12-11T22:38:27.166Z,98725.94
2022-12-11T22:40:55.039Z,98721.28
2022-12-11T22:43:22.673Z,98715.16
2022-12-11T22:45:50.388Z,98713.03
2022-12-11T22:48:19.475Z,98710.31
2022-12-11T22:50:46.950Z,98708.84
2022-12-11T22:53:14.411Z,98685.88
2022-12-11T22:55:42.204Z,98691.63
2022-12-11T22:58:09.636Z,98693.75
2022-12-11T23:00:37.657Z,98700.81
2022-12-11T23:03:05.616Z,98698.91
2022-12-11T23:05:34.725Z,98693.75
2022-12-11T23:08:02.840Z,98689.03
2022-12-11T23:10:30.984Z,98700.19
2022-12-11T23:12:58.475Z,98699.16
2022-12-11T23:15:26.942Z,98717.38
2022-12-11T23:17:55.453Z,98709.47
2022-12-11T23:20:22.953Z,98719.06
2022-12-11T23:22:51.973Z,98728.19
2022-12-11T23:25:19.744Z,98725.47
2022-12-11T23:27:47.325Z,98716.56
2022-12-11T23:30:15.036Z,98721.50
2022-12-11T23:32:42.741Z,98708.47
2022-12-11T23:35:10.629Z,98705.56
2022-12-11T23:37:38.370Z,98707.63
2022-12-11T23:40:09.203Z,98702.81
2022-12-11T23:42:37.074Z,98696.66
2022-12-11T23:45:05.976Z,98689.78
2022-12-11T23:47:33.884Z,98683.75
2022-12-11T23:50:01.285Z,98684.38
2022-12-11T23:52:28.806Z,98687.47
2022-12-11T23:54:56.246Z,98690.81
2022-12-11T23:57:25.117Z,98682.25
2022-12-11T23:59:52.601Z,98687.09
